createdAt,value
2022-11-30T00:01:17.582Z,17.10
2022-11-30T00:03:45.363Z,16.77
2022-11-30T00:06:15.762Z,13.70
2022-11-30T00:08:43.409Z,15.93
2022-11-30T00:11:16.473Z,15.20
2022-11-30T00:13:43.696Z,16.83
2022-11-30T00:16:10.965Z,16.30
2022-11-30T00:18:38.513Z,15.30
2022-11-30T00:21:10.871Z,16.73
2022-11-30T00:23:39.904Z,16.20
2022-11-30T00:26:10.502Z,16.10
2022-11-30T00:28:38.258Z,17.08
2022-11-30T00:31:07.915Z,15.40
2022-11-30T00:33:37.725Z,18.35
2022-11-30T00:36:11.946Z,15.80
2022-11-30T00:38:39.473Z,15.98
2022-11-30T00:41:07.231Z,16.25
2022-11-30T00:43:34.570Z,15.50
2022-11-30T00:46:02.316Z,15.82
2022-11-30T00:48:29.736Z,16.75
2022-11-30T00:50:57.017Z,16.05
2022-11-30T00:53:24.269Z,16.08
2022-11-30T00:55:51.444Z,16.05
2022-11-30T00:58:18.740Z,15.50
2022-11-30T01:00:46.477Z,15.80
2022-11-30T01:03:13.948Z,15.80
2022-11-30T01:05:43.394Z,14.77
2022-11-30T01:08:12.073Z,14.52
2022-11-30T01:10:42.284Z,14.95
2022-11-30T01:13:10.349Z,13.80
2022-11-30T01:15:39.951Z,13.10
2022-11-30T01:18:07.327Z,13.93
2022-11-30T01:20:34.722Z,14.73
2022-11-30T01:23:01.944Z,14.43
2022-11-30T01:25:29.093Z,13.07
2022-11-30T01:27:56.245Z,12.07
2022-11-30T01:30:23.418Z,14.50
2022-11-30T01:32:50.672Z,12.40
2022-11-30T01:35:17.996Z,13.73
2022-11-30T01:37:45.250Z,12.13
2022-11-30T01:40:12.965Z,12.00
2022-11-30T01:42:46.197Z,12.48
2022-11-30T01:45:14.755Z,12.32
2022-11-30T01:47:53.755Z,12.18
2022-11-30T01:50:32.224Z,12.55
2022-11-30T01:52:59.833Z,11.82
2022-11-30T01:55:29.778Z,13.85
2022-11-30T01:58:05.669Z,11.35
2022-11-30T02:00:32.883Z,11.68
2022-11-30T02:03:24.763Z,12.55
2022-11-30T02:05:52.020Z,11.40
2022-11-30T02:08:19.756Z,12.43
2022-11-30T02:10:52.519Z,11.30
2022-11-30T02:13:25.715Z,11.60
2022-11-30T02:16:10.880Z,11.80
2022-11-30T02:18:59.722Z,11.13
2022-11-30T02:22:14.829Z,10.43
2022-11-30T02:24:51.331Z,11.30
2022-11-30T02:27:49.660Z,10.57
2022-11-30T02:30:20.354Z,10.23
2022-11-30T02:33:00.811Z,10.60
2022-11-30T02:35:32.674Z,10.45
2022-11-30T02:38:02.734Z,9.95
2022-11-30T02:40:30.200Z,10.75
2022-11-30T02:43:00.192Z,11.27
2022-11-30T02:45:36.332Z,10.20
2022-11-30T02:48:14.932Z,11.13
2022-11-30T02:50:51.236Z,10.93
2022-11-30T02:53:19.300Z,10.50
2022-11-30T02:55:46.780Z,11.20
2022-11-30T02:58:16.945Z,10.63
2022-11-30T03:00:44.149Z,11.75
2022-11-30T03:03:11.458Z,9.43
2022-11-30T03:05:38.639Z,9.85
2022-11-30T03:08:06.057Z,11.38
2022-11-30T03:10:33.291Z,8.80
2022-11-30T03:13:01.101Z,10.23
2022-11-30T03:15:28.516Z,9.77
2022-11-30T03:17:55.828Z,10.20
2022-11-30T03:20:22.967Z,9.48
2022-11-30T03:22:50.257Z,9.52
2022-11-30T03:25:17.746Z,10.57
2022-11-30T03:27:44.988Z,10.80
2022-11-30T03:30:12.749Z,10.07
2022-11-30T03:32:40.004Z,9.40
2022-11-30T03:35:07.573Z,10.38
2022-11-30T03:37:34.778Z,9.20
2022-11-30T03:40:02.086Z,10.05
2022-11-30T03:42:29.326Z,9.52
2022-11-30T03:44:56.584Z,10.50
2022-11-30T03:47:23.766Z,10.55
2022-11-30T03:49:50.917Z,11.40
2022-11-30T03:52:18.224Z,11.05
2022-11-30T03:54:45.775Z,10.00
2022-11-30T03:57:13.145Z,10.57
2022-11-30T03:59:40.349Z,10.18
2022-11-30T04:02:07.534Z,10.63
2022-11-30T04:04:34.731Z,11.00
2022-11-30T04:07:02.211Z,9.65
2022-11-30T04:09:29.400Z,11.15
2022-11-30T04:11:56.635Z,9.98
2022-11-30T04:14:23.805Z,10.35
2022-11-30T04:16:50.998Z,9.55
2022-11-30T04:19:18.223Z,10.88
2022-11-30T04:21:45.406Z,10.30
2022-11-30T04:24:12.581Z,10.63
2022-11-30T04:26:39.769Z,11.43
2022-11-30T04:29:07.069Z,11.13
2022-11-30T04:31:34.433Z,10.60
2022-11-30T04:34:01.681Z,10.10
2022-11-30T04:36:28.863Z,10.75
2022-11-30T04:38:56.122Z,9.73
2022-11-30T04:41:23.555Z,10.45
2022-11-30T04:43:50.753Z,10.02
2022-11-30T04:46:18.085Z,10.63
2022-11-30T04:48:45.328Z,10.45
2022-11-30T04:51:12.555Z,11.10
2022-11-30T04:53:39.742Z,10.18
2022-11-30T04:56:11.471Z,11.63
2022-11-30T04:58:39.968Z,10.18
2022-11-30T05:01:07.937Z,9.70
2022-11-30T05:03:35.248Z,9.73
2022-11-30T05:06:03.306Z,9.05
2022-11-30T05:08:30.892Z,10.32
2022-11-30T05:10:58.130Z,10.43
2022-11-30T05:13:26.474Z,9.45
2022-11-30T05:15:54.063Z,10.00
2022-11-30T05:18:21.571Z,8.05
2022-11-30T05:20:52.918Z,8.88
2022-11-30T05:23:20.658Z,8.85
2022-11-30T05:25:48.143Z,9.48
2022-11-30T05:28:15.501Z,10.35
2022-11-30T05:30:43.806Z,9.27
2022-11-30T05:33:11.552Z,9.40
2022-11-30T05:35:39.131Z,9.25
2022-11-30T05:38:06.459Z,9.43
2022-11-30T05:40:33.810Z,11.30
2022-11-30T05:43:02.257Z,9.50
2022-11-30T05:45:30.097Z,9.32
2022-11-30T05:47:57.369Z,9.75
2022-11-30T05:50:24.756Z,9.30
2022-11-30T05:53:00.908Z,11.75
2022-11-30T05:55:29.149Z,9.68
2022-11-30T05:57:56.419Z,10.93
2022-11-30T06:00:23.701Z,10.23
2022-11-30T06:02:59.164Z,10.70
2022-11-30T06:05:27.439Z,11.35
2022-11-30T06:07:55.339Z,10.23
2022-11-30T06:10:22.591Z,10.32
2022-11-30T06:12:49.947Z,10.68
2022-11-30T06:15:17.212Z,9.82
2022-11-30T06:17:44.411Z,12.20
2022-11-30T06:20:12.060Z,10.50
2022-11-30T06:22:39.205Z,12.52
2022-11-30T06:25:06.714Z,10.98
2022-11-30T06:27:33.958Z,11.40
2022-11-30T06:30:01.629Z,10.10
2022-11-30T06:32:28.927Z,11.40
2022-11-30T06:34:56.128Z,10.93
2022-11-30T06:37:23.273Z,11.10
2022-11-30T06:40:06.036Z,9.68
2022-11-30T06:42:35.198Z,9.65
2022-11-30T06:45:02.577Z,10.35
2022-11-30T06:47:30.312Z,10.73
2022-11-30T06:49:57.456Z,10.52
2022-11-30T06:52:24.810Z,10.38
2022-11-30T06:54:52.090Z,10.82
2022-11-30T06:57:19.284Z,10.85
2022-11-30T06:59:46.757Z,10.50
2022-11-30T07:02:18.355Z,10.77
2022-11-30T07:04:47.001Z,12.23
2022-11-30T07:07:15.148Z,11.38
2022-11-30T07:09:42.651Z,12.63
2022-11-30T07:12:09.839Z,12.52
2022-11-30T07:14:37.063Z,11.02
2022-11-30T07:17:05.890Z,10.68
2022-11-30T07:19:36.620Z,11.27
2022-11-30T07:22:03.888Z,11.57
2022-11-30T07:24:49.651Z,11.65
2022-11-30T07:27:17.054Z,10.80
2022-11-30T07:29:44.308Z,10.98
2022-11-30T07:32:11.691Z,11.45
2022-11-30T07:34:38.959Z,11.43
2022-11-30T07:37:06.368Z,11.35
2022-11-30T07:39:33.641Z,12.15
2022-11-30T07:42:00.886Z,10.30
2022-11-30T07:44:28.394Z,11.30
2022-11-30T07:46:55.667Z,9.77
2022-11-30T07:49:22.926Z,11.45
2022-11-30T07:51:50.244Z,8.98
2022-11-30T07:54:17.471Z,11.23
2022-11-30T07:56:44.690Z,10.93
2022-11-30T07:59:11.908Z,10.23
2022-11-30T08:01:39.181Z,10.80
2022-11-30T08:04:06.812Z,10.55
2022-11-30T08:06:34.109Z,11.50
2022-11-30T08:09:04.019Z,9.02
2022-11-30T08:11:34.158Z,10.07
2022-11-30T08:14:02.592Z,10.35
2022-11-30T08:16:34.847Z,10.27
2022-11-30T08:19:02.151Z,9.63
2022-11-30T08:21:29.512Z,9.15
2022-11-30T08:23:57.276Z,8.20
2022-11-30T08:26:33.306Z,9.15
2022-11-30T08:29:01.352Z,9.00
2022-11-30T08:31:36.645Z,10.68
2022-11-30T08:34:09.795Z,9.02
2022-11-30T08:36:36.983Z,9.77
2022-11-30T08:39:06.231Z,9.10
2022-11-30T08:41:35.029Z,11.23
2022-11-30T08:44:02.640Z,8.55
2022-11-30T08:49:21.904Z,8.18
2022-11-30T08:52:16.355Z,8.15
2022-11-30T08:54:39.544Z,8.23
2022-11-30T08:57:06.744Z,7.85
2022-11-30T08:59:34.156Z,8.88
2022-11-30T09:02:01.332Z,8.35
2022-11-30T09:04:28.500Z,8.40
2022-11-30T09:06:59.038Z,6.55
2022-11-30T09:09:26.956Z,7.65
2022-11-30T09:11:54.154Z,7.50
2022-11-30T09:14:21.367Z,8.18
2022-11-30T09:16:48.895Z,8.98
2022-11-30T09:19:16.082Z,8.93
2022-11-30T09:21:50.934Z,7.80
2022-11-30T09:24:18.817Z,7.25
2022-11-30T09:26:46.001Z,7.72
2022-11-30T09:29:13.273Z,6.55
2022-11-30T09:31:40.516Z,6.28
2022-11-30T09:34:07.738Z,7.00
2022-11-30T09:36:36.645Z,7.75
2022-11-30T09:39:03.987Z,8.25
2022-11-30T09:41:34.210Z,8.95
2022-11-30T09:44:25.521Z,8.43
2022-11-30T09:46:58.502Z,9.15
2022-11-30T09:49:31.004Z,6.97
2022-11-30T09:52:03.585Z,9.02
2022-11-30T09:54:40.581Z,8.65
2022-11-30T09:57:25.970Z,7.95
2022-11-30T09:59:59.278Z,7.65
2022-11-30T10:02:33.420Z,5.57
2022-11-30T10:05:01.786Z,7.25
2022-11-30T10:07:47.752Z,7.38
2022-11-30T10:10:32.311Z,5.43
2022-11-30T10:13:12.596Z,8.60
2022-11-30T10:16:21.516Z,8.02
2022-11-30T10:19:10.621Z,7.78
2022-11-30T10:21:43.593Z,8.90
2022-11-30T10:24:28.950Z,8.40
2022-11-30T10:26:58.702Z,8.57
2022-11-30T10:29:42.045Z,9.82
2022-11-30T10:32:22.555Z,10.38
2022-11-30T10:34:56.817Z,9.85
2022-11-30T10:37:42.651Z,11.20
2022-11-30T10:40:40.067Z,10.02
2022-11-30T10:43:21.594Z,12.05
2022-11-30T10:45:50.529Z,12.75
2022-11-30T10:48:20.454Z,10.77
2022-11-30T10:50:48.228Z,10.40
2022-11-30T10:53:15.646Z,11.90
2022-11-30T10:55:47.156Z,10.45
2022-11-30T10:58:36.548Z,9.52
2022-11-30T11:01:04.089Z,9.68
2022-11-30T11:03:32.117Z,9.30
2022-11-30T11:06:15.520Z,8.77
2022-11-30T11:08:45.510Z,9.23
2022-11-30T11:11:29.789Z,7.80
2022-11-30T11:14:19.309Z,7.43
2022-11-30T11:16:57.425Z,8.75
2022-11-30T11:19:33.695Z,6.57
2022-11-30T11:22:21.959Z,5.40
2022-11-30T11:24:51.287Z,7.60
2022-11-30T11:27:28.350Z,8.25
2022-11-30T11:30:13.231Z,7.30
2022-11-30T11:35:36.222Z,6.97
2022-11-30T11:38:04.268Z,6.50
2022-11-30T11:40:31.612Z,5.72
2022-11-30T11:43:00.545Z,5.82
2022-11-30T11:45:37.169Z,4.75
2022-11-30T11:48:29.670Z,4.45
2022-11-30T11:51:07.556Z,5.78
2022-11-30T11:53:43.278Z,4.78
2022-11-30T11:56:28.507Z,5.25
2022-11-30T11:58:58.183Z,5.05
2022-11-30T12:01:55.440Z,4.45
2022-11-30T12:04:42.698Z,4.95
2022-11-30T12:07:24.185Z,5.40
2022-11-30T12:10:51.148Z,5.40
2022-11-30T12:13:19.184Z,5.30
2022-11-30T12:16:01.618Z,3.20
2022-11-30T12:18:49.120Z,4.72
2022-11-30T12:21:41.330Z,4.95
2022-11-30T12:24:33.141Z,5.65
2022-11-30T12:27:37.649Z,5.03
2022-11-30T12:30:27.461Z,6.55
2022-11-30T12:33:28.057Z,7.32
2022-11-30T12:35:59.623Z,8.45
2022-11-30T12:38:29.603Z,6.07
2022-11-30T12:41:14.854Z,5.50
2022-11-30T12:44:00.800Z,5.97
2022-11-30T12:46:46.385Z,5.95
2022-11-30T12:49:42.512Z,5.72
2022-11-30T12:52:48.433Z,6.75
2022-11-30T12:55:37.673Z,7.05
2022-11-30T12:58:29.703Z,7.57
2022-11-30T13:01:02.985Z,7.15
2022-11-30T13:03:42.718Z,7.32
2022-11-30T13:06:16.162Z,9.50
2022-11-30T13:09:18.082Z,8.15
2022-11-30T13:11:55.394Z,7.85
2022-11-30T13:14:24.782Z,8.18
2022-11-30T13:17:05.923Z,8.48
2022-11-30T13:19:49.837Z,8.68
2022-11-30T13:22:33.221Z,8.47
2022-11-30T13:25:34.064Z,7.45
2022-11-30T13:28:11.153Z,7.90
2022-11-30T13:30:48.207Z,8.07
2022-11-30T13:33:33.950Z,9.30
2022-11-30T13:36:27.912Z,9.75
2022-11-30T13:39:22.208Z,8.65
2022-11-30T13:42:11.201Z,8.77
2022-11-30T13:44:40.763Z,9.18
2022-11-30T13:47:26.652Z,9.20
2022-11-30T13:50:00.973Z,8.48
2022-11-30T13:52:59.463Z,9.13
2022-11-30T13:55:35.960Z,8.75
2022-11-30T13:58:06.584Z,7.90
2022-11-30T14:00:33.856Z,7.45
2022-11-30T14:03:19.939Z,7.35
2022-11-30T14:05:53.803Z,7.55
2022-11-30T14:08:23.905Z,7.68
2022-11-30T14:10:51.875Z,7.40
2022-11-30T14:13:22.663Z,8.73
2022-11-30T14:16:00.042Z,7.60
2022-11-30T14:18:30.319Z,8.77
2022-11-30T14:21:03.813Z,7.10
2022-11-30T14:23:33.788Z,7.60
2022-11-30T14:26:11.341Z,7.50
2022-11-30T14:28:58.695Z,6.57
2022-11-30T14:31:29.133Z,6.90
2022-11-30T14:34:00.708Z,7.70
2022-11-30T14:36:35.583Z,7.97
2022-11-30T14:39:02.909Z,7.00
2022-11-30T14:41:31.610Z,6.85
2022-11-30T14:44:14.944Z,6.75
2022-11-30T14:46:42.224Z,6.57
2022-11-30T14:49:18.371Z,7.45
2022-11-30T14:52:04.441Z,6.85
2022-11-30T14:55:24.934Z,7.30
2022-11-30T14:58:12.749Z,7.18
2022-11-30T15:00:42.339Z,8.48
2022-11-30T15:03:34.621Z,7.30
2022-11-30T15:06:05.964Z,5.80
2022-11-30T15:08:41.333Z,7.20
2022-11-30T15:11:17.304Z,7.78
2022-11-30T15:13:54.544Z,7.57
2022-11-30T15:16:24.753Z,7.20
2022-11-30T15:18:53.999Z,7.85
2022-11-30T15:21:29.252Z,7.20
2022-11-30T15:23:59.267Z,8.40
2022-11-30T15:26:30.375Z,8.95
2022-11-30T15:29:10.045Z,8.48
2022-11-30T15:31:42.011Z,8.77
2022-11-30T15:34:20.782Z,9.45
2022-11-30T15:36:48.285Z,7.90
2022-11-30T15:39:20.976Z,8.65
2022-11-30T15:42:03.331Z,9.13
2022-11-30T15:44:36.299Z,9.07
2022-11-30T15:47:04.954Z,7.95
2022-11-30T15:49:33.643Z,8.77
2022-11-30T15:52:17.140Z,8.95
2022-11-30T15:54:52.870Z,8.05
2022-11-30T15:57:22.076Z,7.82
2022-11-30T16:00:09.445Z,8.50
2022-11-30T16:02:37.977Z,8.20
2022-11-30T16:05:09.546Z,8.40
2022-11-30T16:07:52.280Z,8.57
2022-11-30T16:10:43.844Z,9.20
2022-11-30T16:13:20.182Z,7.57
2022-11-30T16:15:50.110Z,8.32
2022-11-30T16:18:22.122Z,7.70
2022-11-30T16:20:56.449Z,7.32
2022-11-30T16:23:23.820Z,8.40
2022-11-30T16:25:51.383Z,7.65
2022-11-30T16:28:20.261Z,8.00
2022-11-30T16:30:48.281Z,8.15
2022-11-30T16:33:21.137Z,8.43
2022-11-30T16:36:08.167Z,8.93
2022-11-30T16:38:35.406Z,8.30
2022-11-30T16:41:21.978Z,8.13
2022-11-30T16:43:51.671Z,8.55
2022-11-30T16:46:24.753Z,8.25
2022-11-30T16:48:53.008Z,6.82
2022-11-30T16:51:29.735Z,8.20
2022-11-30T16:53:57.839Z,7.43
2022-11-30T16:56:25.633Z,8.05
2022-11-30T16:58:53.215Z,7.47
2022-11-30T17:01:45.750Z,8.18
2022-11-30T17:04:19.381Z,8.73
2022-11-30T17:06:50.550Z,8.15
2022-11-30T17:09:19.689Z,8.30
2022-11-30T17:11:50.409Z,10.32
2022-11-30T17:14:18.733Z,9.18
2022-11-30T17:16:46.021Z,8.75
2022-11-30T17:19:13.240Z,9.68
2022-11-30T17:21:42.256Z,9.60
2022-11-30T17:24:09.542Z,10.95
2022-11-30T17:26:36.748Z,9.65
2022-11-30T17:29:04.123Z,9.68
2022-11-30T17:31:31.475Z,10.18
2022-11-30T17:33:58.821Z,11.05
2022-11-30T17:36:26.937Z,9.07
2022-11-30T17:38:54.165Z,10.13
2022-11-30T17:41:22.361Z,10.55
2022-11-30T17:43:49.635Z,11.60
2022-11-30T17:46:18.306Z,10.00
2022-11-30T17:48:45.780Z,10.48
2022-11-30T17:51:13.291Z,11.13
2022-11-30T17:53:42.282Z,11.15
2022-11-30T17:56:16.987Z,10.02
2022-11-30T17:58:46.235Z,11.60
2022-11-30T18:01:22.243Z,10.93
2022-11-30T18:03:50.422Z,12.43
2022-11-30T18:06:17.720Z,12.02
2022-11-30T18:08:45.385Z,12.30
2022-11-30T18:11:15.965Z,11.98
2022-11-30T18:13:43.674Z,12.00
2022-11-30T18:16:17.829Z,12.25
2022-11-30T18:18:48.190Z,10.88
2022-11-30T18:21:19.014Z,12.20
2022-11-30T18:23:46.771Z,12.35
2022-11-30T18:26:16.095Z,10.35
2022-11-30T18:28:43.630Z,13.30
2022-11-30T18:31:11.131Z,12.30
2022-11-30T18:33:38.850Z,12.10
2022-11-30T18:36:07.818Z,13.25
2022-11-30T18:38:38.347Z,13.05
2022-11-30T18:41:06.551Z,13.45
2022-11-30T18:43:34.860Z,14.93
2022-11-30T18:46:06.787Z,13.95
2022-11-30T18:48:34.591Z,14.48
2022-11-30T18:51:23.467Z,15.50
2022-11-30T18:53:57.638Z,14.68
2022-11-30T18:56:26.585Z,13.32
2022-11-30T18:58:59.114Z,13.77
2022-11-30T19:01:28.536Z,14.70
2022-11-30T19:03:58.522Z,12.98
2022-11-30T19:06:29.550Z,14.20
2022-11-30T19:08:57.493Z,13.80
2022-11-30T19:11:25.315Z,14.32
2022-11-30T19:13:57.073Z,13.23
2022-11-30T19:16:25.934Z,13.82
2022-11-30T19:18:53.895Z,14.95
2022-11-30T19:21:22.895Z,14.52
2022-11-30T19:23:50.174Z,14.52
2022-11-30T19:26:17.418Z,15.07
2022-11-30T19:28:45.759Z,16.55
2022-11-30T19:31:16.247Z,14.27
2022-11-30T19:33:45.513Z,14.40
2022-11-30T19:36:17.730Z,15.02
2022-11-30T19:38:45.290Z,14.40
2022-11-30T19:41:14.597Z,14.63
2022-11-30T19:43:43.536Z,15.43
2022-11-30T19:46:17.483Z,15.82
2022-11-30T19:48:45.111Z,14.95
2022-11-30T19:51:18.007Z,16.38
2022-11-30T19:53:45.744Z,15.55
2022-11-30T19:56:17.709Z,16.48
2022-11-30T19:58:46.341Z,14.35
2022-11-30T20:01:24.460Z,16.10
2022-11-30T20:03:53.725Z,15.02
2022-11-30T20:06:24.199Z,14.57
2022-11-30T20:08:51.638Z,14.93
2022-11-30T20:11:18.999Z,14.20
2022-11-30T20:13:46.212Z,14.38
2022-11-30T20:16:16.829Z,14.68
2022-11-30T20:18:46.540Z,13.77
2022-11-30T20:21:13.926Z,12.60
2022-11-30T20:23:42.125Z,14.57
2022-11-30T20:26:33.377Z,14.10
2022-11-30T20:29:02.125Z,12.48
2022-11-30T20:31:35.118Z,13.63
2022-11-30T20:34:02.810Z,12.40
2022-11-30T20:36:30.166Z,14.13
2022-11-30T20:38:59.461Z,13.98
2022-11-30T20:41:27.087Z,15.05
2022-11-30T20:43:54.728Z,14.45
2022-11-30T20:46:28.053Z,15.30
2022-11-30T20:48:56.499Z,14.73
2022-11-30T20:51:31.356Z,15.60
2022-11-30T20:54:01.286Z,15.38
2022-11-30T20:56:28.784Z,16.77
2022-11-30T20:58:56.469Z,14.95
2022-11-30T21:01:23.802Z,16.70
2022-11-30T21:03:51.087Z,16.40
2022-11-30T21:06:18.302Z,16.23
2022-11-30T21:08:45.568Z,16.40
2022-11-30T21:11:16.395Z,18.10
2022-11-30T21:13:46.052Z,16.73
2022-11-30T21:16:14.891Z,18.92
2022-11-30T21:18:44.648Z,18.48
2022-11-30T21:21:18.252Z,17.35
2022-11-30T21:23:46.060Z,18.33
2022-11-30T21:26:27.036Z,17.52
2022-11-30T21:28:58.792Z,16.80
2022-11-30T21:31:26.457Z,17.73
2022-11-30T21:33:54.077Z,18.67
2022-11-30T21:36:23.071Z,17.60
2022-11-30T21:39:04.954Z,18.55
2022-11-30T21:41:36.158Z,17.15
2022-11-30T21:44:04.277Z,18.95
2022-11-30T21:46:31.917Z,18.30
2022-11-30T21:48:59.454Z,18.73
2022-11-30T21:51:29.131Z,18.15
2022-11-30T21:53:58.435Z,19.20
2022-11-30T21:56:28.448Z,18.75
2022-11-30T21:58:56.529Z,18.45
2022-11-30T22:01:33.045Z,18.17
2022-11-30T22:04:02.092Z,18.83
2022-11-30T22:06:31.152Z,18.13
2022-11-30T22:09:03.393Z,20.10
2022-11-30T22:11:31.309Z,17.83
2022-11-30T22:13:58.732Z,19.80
2022-11-30T22:16:32.589Z,20.30
2022-11-30T22:19:03.548Z,20.08
2022-11-30T22:21:31.852Z,21.15
2022-11-30T22:24:04.352Z,21.30
2022-11-30T22:26:34.406Z,22.33
2022-11-30T22:29:08.572Z,23.40
2022-11-30T22:31:38.545Z,22.02
2022-11-30T22:34:06.166Z,22.23
2022-11-30T22:36:35.298Z,22.00
2022-11-30T22:39:06.678Z,21.20
2022-11-30T22:41:33.974Z,21.88
2022-11-30T22:44:01.857Z,22.65
2022-11-30T22:46:31.185Z,24.95
2022-11-30T22:49:21.218Z,24.42
2022-11-30T22:51:50.013Z,24.25
2022-11-30T22:54:17.447Z,24.98
2022-11-30T22:56:46.590Z,23.88
2022-11-30T22:59:14.846Z,22.00
2022-11-30T23:01:44.632Z,23.02
2022-11-30T23:04:15.066Z,22.27
2022-11-30T23:06:43.533Z,19.70
2022-11-30T23:09:15.042Z,21.13
2022-11-30T23:11:42.653Z,22.40
2022-11-30T23:14:12.145Z,20.92
2022-11-30T23:16:40.223Z,20.10
2022-11-30T23:19:08.858Z,20.40
2022-11-30T23:21:41.348Z,19.40
2022-11-30T23:24:16.921Z,18.13
2022-11-30T23:26:44.334Z,18.67
2022-11-30T23:29:13.449Z,18.73
2022-11-30T23:31:42.455Z,19.17
2022-11-30T23:34:14.969Z,17.58
2022-11-30T23:36:42.367Z,18.33
2022-11-30T23:39:12.189Z,18.48
2022-11-30T23:41:40.179Z,18.45
2022-11-30T23:44:07.618Z,18.40
2022-11-30T23:46:35.563Z,17.95
2022-11-30T23:49:03.384Z,17.50
2022-11-30T23:51:30.566Z,19.02
2022-11-30T23:53:57.772Z,19.25
2022-11-30T23:56:25.234Z,17.35
2022-11-30T23:58:53.166Z,18.00
